Time,TemperatureF,DewpointF,PressureIn,WindDirection,WindDirectionDegrees,WindSpeedMPH,WindSpeedGustMPH,Humidity,HourlyPrecipIn,Conditions,Clouds,dailyrainin,SoftwareType,DateUTC
2013-10-16 00:01:00,48.4,45.3,30.17,WSW,244,0.0,2.0,89,0.00,,,0.00,meteohub,2013-10-16 04:01:00,
2013-10-16 00:02:00,48.4,45.3,30.17,WSW,244,0.0,2.0,89,0.00,,,0.00,meteohub,2013-10-16 04:02:00,
2013-10-16 00:07:00,48.4,45.0,30.17,WSW,244,0.0,0.0,88,0.00,,,0.00,meteohub,2013-10-16 04:07:00,
2013-10-16 00:12:00,48.2,45.1,30.17,WSW,244,0.0,0.0,89,0.00,,,0.00,meteohub,2013-10-16 04:12:00,
2013-10-16 00:17:00,48.0,45.1,30.17,WSW,244,0.0,0.0,90,0.00,,,0.00,meteohub,2013-10-16 04:17:00,
2013-10-16 00:22:00,48.0,45.0,30.17,WSW,244,0.0,0.0,89,0.00,,,0.00,meteohub,2013-10-16 04:22:00,
2013-10-16 00:27:00,48.0,45.1,30.17,WSW,244,0.0,0.0,90,0.00,,,0.00,meteohub,2013-10-16 04:27:00,
2013-10-16 00:32:00,47.8,45.0,30.17,WSW,244,0.0,0.0,90,0.00,,,0.00,meteohub,2013-10-16 04:32:00,
2013-10-16 00:37:00,47.8,45.3,30.17,WSW,244,0.0,0.0,91,0.00,,,0.00,meteohub,2013-10-16 04:37:00,
2013-10-16 00:42:00,47.8,45.3,30.16,WSW,244,0.0,0.0,91,0.00,,,0.00,meteohub,2013-10-16 04:42:00,
2013-10-16 00:47:00,47.7,45.1,30.16,WSW,244,0.0,0.0,91,0.00,,,0.00,meteohub,2013-10-16 04:47:00,
2013-10-16 00:52:00,47.7,45.1,30.16,WSW,244,0.0,0.0,91,0.00,,,0.00,meteohub,2013-10-16 04:52:00,
2013-10-16 00:57:00,47.5,44.8,30.16,WSW,244,0.0,0.0,90,0.00,,,0.00,meteohub,2013-10-16 04:57:00,
2013-10-16 01:02:00,47.3,44.8,30.16,WSW,244,0.0,0.0,91,0.00,,,0.00,meteohub,2013-10-16 05:02:00,
2013-10-16 01:07:00,47.1,44.6,30.15,WSW,244,0.0,0.0,91,0.00,,,0.00,meteohub,2013-10-16 05:07:00,
2013-10-16 01:12:00,47.1,45.0,30.15,WSW,244,0.0,0.0,92,0.00,,,0.00,meteohub,2013-10-16 05:12:00,
2013-10-16 01:17:00,46.9,44.8,30.15,WSW,244,0.0,0.0,92,0.00,,,0.00,meteohub,2013-10-16 05:17:00,
2013-10-16 01:22:00,46.9,44.8,30.14,WSW,244,0.0,0.0,92,0.00,,,0.00,meteohub,2013-10-16 05:22:00,
2013-10-16 01:27:00,46.9,44.8,30.15,WSW,244,0.0,1.0,92,0.00,,,0.00,meteohub,2013-10-16 05:27:00,
2013-10-16 01:32:00,46.9,44.8,30.15,WSW,244,0.0,1.0,92,0.00,,,0.00,meteohub,2013-10-16 05:32:00,
2013-10-16 01:37:00,46.9,45.0,30.15,WSW,244,0.0,1.0,93,0.00,,,0.00,meteohub,2013-10-16 05:37:00,
2013-10-16 01:42:00,46.9,44.8,30.15,WSW,244,0.0,0.0,92,0.00,,,0.00,meteohub,2013-10-16 05:42:00,
2013-10-16 01:47:00,46.9,45.0,30.15,WSW,244,1.0,0.0,93,0.00,,,0.00,meteohub,2013-10-16 05:47:00,
2013-10-16 01:52:00,46.9,44.8,30.15,WSW,244,0.0,1.0,92,0.00,,,0.00,meteohub,2013-10-16 05:52:00,
2013-10-16 01:57:00,46.9,45.0,30.15,WSW,244,0.0,1.0,93,0.00,,,0.00,meteohub,2013-10-16 05:57:00,
2013-10-16 02:02:00,46.9,45.0,30.15,WSW,244,0.0,1.0,93,0.00,,,0.00,meteohub,2013-10-16 06:02:00,
2013-10-16 02:07:00,46.9,45.0,30.15,WSW,244,0.0,0.0,93,0.00,,,0.00,meteohub,2013-10-16 06:07:00,
2013-10-16 02:12:00,46.8,44.6,30.15,WSW,244,0.0,0.0,92,0.00,,,0.00,meteohub,2013-10-16 06:12:00,
2013-10-16 02:17:00,46.8,44.8,30.15,WSW,244,0.0,1.0,93,0.00,,,0.00,meteohub,2013-10-16 06:17:00,
2013-10-16 02:22:00,46.8,44.8,30.15,WSW,244,0.0,1.0,93,0.00,,,0.00,meteohub,2013-10-16 06:22:00,
2013-10-16 02:27:00,46.8,44.8,30.15,WSW,244,0.0,1.0,93,0.00,,,0.00,meteohub,2013-10-16 06:27:00,
2013-10-16 02:32:00,46.8,44.8,30.16,WSW,244,0.0,0.0,93,0.00,,,0.00,meteohub,2013-10-16 06:32:00,
2013-10-16 02:37:00,46.9,45.0,30.16,WSW,244,0.0,0.0,93,0.00,,,0.00,meteohub,2013-10-16 06:37:00,
2013-10-16 02:42:00,46.9,45.0,30.16,WSW,244,0.0,0.0,93,0.00,,,0.00,meteohub,2013-10-16 06:42:00,
2013-10-16 02:47:00,47.1,45.1,30.16,WSW,244,0.0,0.0,93,0.00,,,0.00,meteohub,2013-10-16 06:47:00,
2013-10-16 02:53:00,47.1,45.1,30.15,WSW,248,0.0,1.0,93,0.00,,,0.00,meteohub,2013-10-16 06:53:00,
2013-10-16 02:58:00,47.3,45.3,30.15,WSW,248,0.0,1.0,93,0.00,,,0.00,meteohub,2013-10-16 06:58:00,
2013-10-16 03:03:00,47.5,45.5,30.15,WSW,248,0.0,1.0,93,0.00,,,0.00,meteohub,2013-10-16 07:03:00,
2013-10-16 03:08:00,47.7,45.7,30.15,WSW,248,0.0,0.0,93,0.00,,,0.00,meteohub,2013-10-16 07:08:00,
2013-10-16 03:13:00,47.8,45.9,30.15,WSW,248,0.0,0.0,93,0.00,,,0.00,meteohub,2013-10-16 07:13:00,
2013-10-16 03:18:00,47.8,45.9,30.15,WSW,252,0.0,0.0,93,0.00,,,0.00,meteohub,2013-10-16 07:18:00,
2013-10-16 03:23:00,48.0,46.0,30.14,WSW,252,0.0,0.0,93,0.00,,,0.00,meteohub,2013-10-16 07:23:00,
2013-10-16 03:28:00,48.0,46.0,30.15,WSW,252,0.0,0.0,93,0.00,,,0.00,meteohub,2013-10-16 07:28:00,
2013-10-16 03:33:00,48.0,46.0,30.14,WSW,252,0.0,0.0,93,0.00,,,0.00,meteohub,2013-10-16 07:33:00,
2013-10-16 03:38:00,48.0,46.0,30.15,WSW,252,0.0,0.0,93,0.00,,,0.00,meteohub,2013-10-16 07:38:00,
2013-10-16 03:43:00,47.8,45.7,30.15,WSW,252,0.0,0.0,92,0.00,,,0.00,meteohub,2013-10-16 07:43:00,
2013-10-16 03:48:00,47.8,45.9,30.15,WSW,252,0.0,0.0,93,0.00,,,0.00,meteohub,2013-10-16 07:48:00,
2013-10-16 03:53:00,47.8,45.9,30.15,WSW,252,0.0,0.0,93,0.00,,,0.00,meteohub,2013-10-16 07:53:00,
2013-10-16 03:58:00,47.8,45.9,30.15,WSW,252,0.0,0.0,93,0.00,,,0.00,meteohub,2013-10-16 07:58:00,
2013-10-16 04:03:00,48.0,46.0,30.15,WSW,252,0.0,0.0,93,0.00,,,0.00,meteohub,2013-10-16 08:03:00,
2013-10-16 04:08:00,48.0,46.0,30.15,WSW,252,0.0,0.0,93,0.00,,,0.00,meteohub,2013-10-16 08:08:00,
2013-10-16 04:13:00,48.0,46.0,30.15,WSW,252,0.0,0.0,93,0.00,,,0.00,meteohub,2013-10-16 08:13:00,
2013-10-16 04:18:00,48.0,46.0,30.14,WSW,252,0.0,0.0,93,0.00,,,0.00,meteohub,2013-10-16 08:18:00,
2013-10-16 04:23:00,48.0,46.0,30.14,WSW,252,0.0,0.0,93,0.00,,,0.00,meteohub,2013-10-16 08:23:00,
2013-10-16 04:28:00,47.8,45.9,30.14,WSW,252,0.0,0.0,93,0.00,,,0.00,meteohub,2013-10-16 08:28:00,
2013-10-16 04:33:00,47.8,45.9,30.13,WSW,252,0.0,0.0,93,0.00,,,0.00,meteohub,2013-10-16 08:33:00,
2013-10-16 04:38:00,47.8,45.9,30.13,WSW,252,0.0,0.0,93,0.00,,,0.00,meteohub,2013-10-16 08:38:00,
2013-10-16 04:43:00,47.7,45.7,30.13,WSW,252,0.0,0.0,93,0.00,,,0.00,meteohub,2013-10-16 08:43:00,
2013-10-16 04:48:00,47.7,45.7,30.12,WSW,252,0.0,0.0,93,0.00,,,0.00,meteohub,2013-10-16 08:48:00,
2013-10-16 04:53:00,47.7,45.7,30.13,WSW,252,0.0,0.0,93,0.00,,,0.00,meteohub,2013-10-16 08:53:00,
2013-10-16 04:58:00,47.5,45.5,30.14,WSW,252,0.0,0.0,93,0.00,,,0.00,meteohub,2013-10-16 08:58:00,
2013-10-16 05:03:00,47.5,45.5,30.13,WSW,252,0.0,1.0,93,0.00,,,0.00,meteohub,2013-10-16 09:03:00,
2013-10-16 05:08:00,47.5,45.5,30.13,WSW,252,0.0,1.0,93,0.00,,,0.00,meteohub,2013-10-16 09:08:00,
2013-10-16 05:13:00,47.5,45.9,30.13,WSW,252,0.0,1.0,94,0.00,,,0.00,meteohub,2013-10-16 09:13:00,
2013-10-16 05:18:00,47.5,45.5,30.13,WSW,252,0.0,0.0,93,0.00,,,0.00,meteohub,2013-10-16 09:18:00,
2013-10-16 05:23:00,47.5,45.5,30.14,WSW,252,0.0,0.0,93,0.00,,,0.00,meteohub,2013-10-16 09:23:00,
2013-10-16 05:28:00,47.5,45.5,30.14,WSW,252,0.0,0.0,93,0.00,,,0.00,meteohub,2013-10-16 09:28:00,
2013-10-16 05:33:00,47.5,45.5,30.14,WSW,252,0.0,0.0,93,0.00,,,0.00,meteohub,2013-10-16 09:33:00,
2013-10-16 05:38:00,47.3,45.3,30.13,WSW,252,0.0,0.0,93,0.00,,,0.00,meteohub,2013-10-16 09:38:00,
2013-10-16 05:43:00,47.5,45.5,30.14,WSW,252,0.0,1.0,93,0.00,,,0.00,meteohub,2013-10-16 09:43:00,
2013-10-16 05:48:00,47.5,45.5,30.13,WSW,252,0.0,1.0,93,0.00,,,0.00,meteohub,2013-10-16 09:48:00,
2013-10-16 05:53:00,47.5,45.5,30.13,WSW,252,0.0,1.0,93,0.00,,,0.00,meteohub,2013-10-16 09:53:00,
2013-10-16 05:58:00,47.5,45.5,30.14,WSW,252,0.0,0.0,93,0.00,,,0.00,meteohub,2013-10-16 09:58:00,
2013-10-16 06:03:00,47.5,45.9,30.14,WSW,252,0.0,0.0,94,0.00,,,0.00,meteohub,2013-10-16 10:03:00,
2013-10-16 06:08:00,47.7,46.0,30.14,WSW,252,0.0,1.0,94,0.00,,,0.00,meteohub,2013-10-16 10:08:00,
2013-10-16 06:13:00,47.8,46.2,30.14,West,259,0.0,1.0,94,0.00,,,0.00,meteohub,2013-10-16 10:13:00,
2013-10-16 06:18:00,47.8,46.2,30.14,West,259,0.0,1.0,94,0.00,,,0.00,meteohub,2013-10-16 10:18:00,
2013-10-16 06:23:00,48.0,46.4,30.14,West,259,0.0,1.0,94,0.00,,,0.00,meteohub,2013-10-16 10:23:00,
2013-10-16 06:28:00,48.0,46.4,30.14,West,259,0.0,1.0,94,0.00,,,0.00,meteohub,2013-10-16 10:28:00,
2013-10-16 06:33:00,48.4,46.8,30.14,NNW,344,0.0,0.0,94,0.00,,,0.00,meteohub,2013-10-16 10:33:00,
2013-10-16 06:38:00,48.4,46.4,30.14,NNW,344,0.0,2.0,93,0.00,,,0.00,meteohub,2013-10-16 10:38:00,
2013-10-16 06:43:00,48.6,46.6,30.14,NNW,344,0.0,2.0,93,0.00,,,0.00,meteohub,2013-10-16 10:43:00,
2013-10-16 06:48:00,48.6,46.6,30.13,NNW,344,0.0,2.0,93,0.00,,,0.00,meteohub,2013-10-16 10:48:00,
2013-10-16 06:53:00,48.6,46.6,30.13,NNW,344,0.0,1.0,93,0.00,,,0.00,meteohub,2013-10-16 10:53:00,
2013-10-16 06:58:00,48.6,46.6,30.12,NNW,344,0.0,1.0,93,0.00,,,0.00,meteohub,2013-10-16 10:58:00,
2013-10-16 07:03:00,48.7,46.8,30.13,NNW,344,0.0,1.0,93,0.00,,,0.00,meteohub,2013-10-16 11:03:00,
2013-10-16 07:08:00,48.7,46.8,30.13,NNW,344,0.0,1.0,93,0.00,,,0.00,meteohub,2013-10-16 11:08:00,
2013-10-16 07:13:00,48.7,46.8,30.13,NNW,344,0.0,0.0,93,0.00,,,0.00,meteohub,2013-10-16 11:13:00,
2013-10-16 07:18:00,48.7,46.8,30.13,NNW,344,0.0,0.0,93,0.00,,,0.00,meteohub,2013-10-16 11:18:00,
2013-10-16 07:23:00,48.7,46.8,30.13,NNW,344,1.0,0.0,93,0.00,,,0.00,meteohub,2013-10-16 11:23:00,
2013-10-16 07:28:00,48.7,46.8,30.13,North,9,0.0,1.0,93,0.00,,,0.00,meteohub,2013-10-16 11:28:00,
2013-10-16 07:33:00,48.7,46.8,30.12,NE,52,0.0,1.0,93,0.00,,,0.00,meteohub,2013-10-16 11:33:00,
2013-10-16 07:38:00,48.9,46.9,30.12,NE,52,0.0,1.0,93,0.00,,,0.00,meteohub,2013-10-16 11:38:00,
2013-10-16 07:43:00,48.9,46.9,30.13,NE,52,0.0,1.0,93,0.00,,,0.00,meteohub,2013-10-16 11:43:00,
2013-10-16 07:48:00,49.1,47.1,30.12,NE,52,0.0,1.0,93,0.00,,,0.00,meteohub,2013-10-16 11:48:00,
2013-10-16 07:53:00,49.3,47.3,30.12,NE,52,0.0,1.0,93,0.00,,,0.00,meteohub,2013-10-16 11:53:00,
2013-10-16 07:59:00,49.5,47.5,30.12,NE,52,0.0,1.0,93,0.00,,,0.00,meteohub,2013-10-16 11:59:00,
2013-10-16 08:03:00,49.5,47.5,30.12,NE,52,0.0,0.0,93,0.00,,,0.00,meteohub,2013-10-16 12:03:00,
2013-10-16 08:09:00,49.6,47.7,30.12,NE,52,0.0,0.0,93,0.00,,,0.00,meteohub,2013-10-16 12:09:00,
2013-10-16 08:14:00,49.8,47.8,30.12,NE,52,0.0,0.0,93,0.00,,,0.00,meteohub,2013-10-16 12:14:00,
2013-10-16 08:19:00,50.2,48.2,30.12,NE,52,0.0,0.0,93,0.00,,,0.00,meteohub,2013-10-16 12:19:00,
2013-10-16 08:24:00,50.4,48.4,30.12,NE,52,0.0,0.0,93,0.00,,,0.00,meteohub,2013-10-16 12:24:00,
2013-10-16 08:29:00,50.4,48.4,30.12,NE,40,0.0,0.0,93,0.00,,,0.00,meteohub,2013-10-16 12:29:00,
2013-10-16 08:34:00,50.5,48.4,30.12,NE,40,0.0,2.0,92,0.00,,,0.00,meteohub,2013-10-16 12:34:00,
2013-10-16 08:39:00,50.7,48.6,30.12,NE,35,3.0,3.0,92,0.00,,,0.00,meteohub,2013-10-16 12:39:00,
2013-10-16 08:44:00,51.1,48.9,30.12,NNE,29,0.0,3.0,92,0.00,,,0.00,meteohub,2013-10-16 12:44:00,
2013-10-16 08:49:00,51.1,48.9,30.12,NNE,29,0.0,3.0,92,0.00,,,0.00,meteohub,2013-10-16 12:49:00,
2013-10-16 08:54:00,51.3,48.7,30.12,NNE,29,0.0,3.0,91,0.00,,,0.00,meteohub,2013-10-16 12:54:00,
2013-10-16 08:59:00,51.4,48.9,30.11,NNE,29,0.0,3.0,91,0.00,,,0.00,meteohub,2013-10-16 12:59:00,
2013-10-16 09:04:00,51.4,48.9,30.11,NNE,29,0.0,1.0,91,0.00,,,0.00,meteohub,2013-10-16 13:04:00,
2013-10-16 09:09:00,51.6,49.1,30.11,NNE,29,0.0,1.0,91,0.00,,,0.00,meteohub,2013-10-16 13:09:00,
2013-10-16 09:14:00,51.8,49.3,30.12,NNE,29,0.0,2.0,91,0.00,,,0.00,meteohub,2013-10-16 13:14:00,
2013-10-16 09:19:00,52.0,49.5,30.11,NNE,28,0.0,2.0,91,0.00,,,0.00,meteohub,2013-10-16 13:19:00,
2013-10-16 09:24:00,52.2,49.3,30.11,NNE,27,0.0,2.0,90,0.00,,,0.00,meteohub,2013-10-16 13:24:00,
2013-10-16 09:29:00,52.3,49.5,30.11,NE,39,2.0,2.0,90,0.00,,,0.00,meteohub,2013-10-16 13:29:00,
2013-10-16 09:34:00,52.3,49.5,30.11,NE,38,0.0,2.0,90,0.00,,,0.00,meteohub,2013-10-16 13:34:00,
2013-10-16 09:39:00,52.5,49.6,30.11,NE,38,1.0,2.0,90,0.00,,,0.00,meteohub,2013-10-16 13:39:00,
2013-10-16 09:44:00,52.9,49.5,30.11,NE,37,0.0,3.0,88,0.00,,,0.00,meteohub,2013-10-16 13:44:00,
2013-10-16 09:49:00,53.1,49.6,30.10,NNE,14,0.0,4.0,88,0.00,,,0.00,meteohub,2013-10-16 13:49:00,
2013-10-16 09:54:00,53.2,49.8,30.11,NNE,24,1.0,4.0,88,0.00,,,0.00,meteohub,2013-10-16 13:54:00,
2013-10-16 09:59:00,53.4,50.0,30.11,NNE,24,0.0,4.0,88,0.00,,,0.00,meteohub,2013-10-16 13:59:00,
2013-10-16 10:04:00,53.6,49.8,30.11,NNE,24,0.0,4.0,87,0.00,,,0.00,meteohub,2013-10-16 14:04:00,
2013-10-16 10:09:00,53.8,49.6,30.11,NNE,24,1.0,4.0,86,0.00,,,0.00,meteohub,2013-10-16 14:09:00,
2013-10-16 10:14:00,54.0,50.2,30.10,NNE,24,0.0,2.0,87,0.00,,,0.00,meteohub,2013-10-16 14:14:00,
2013-10-16 10:19:00,54.1,50.0,30.10,NNE,24,0.0,2.0,86,0.00,,,0.00,meteohub,2013-10-16 14:19:00,
2013-10-16 10:24:00,54.3,49.6,30.10,NNE,27,3.0,3.0,84,0.00,,,0.00,meteohub,2013-10-16 14:24:00,
2013-10-16 10:29:00,54.7,50.2,30.10,NNE,27,0.0,3.0,85,0.00,,,0.00,meteohub,2013-10-16 14:29:00,
2013-10-16 10:34:00,54.9,50.4,30.10,NNE,27,0.0,3.0,85,0.00,,,0.00,meteohub,2013-10-16 14:34:00,
2013-10-16 10:39:00,55.0,50.5,30.10,NNE,27,1.0,3.0,85,0.00,,,0.00,meteohub,2013-10-16 14:39:00,
2013-10-16 10:44:00,55.2,50.2,30.10,NNE,27,1.0,2.0,83,0.00,,,0.00,meteohub,2013-10-16 14:44:00,
2013-10-16 10:49:00,55.4,50.0,30.09,NNE,27,0.0,2.0,82,0.00,,,0.00,meteohub,2013-10-16 14:49:00,
2013-10-16 10:54:00,55.6,50.2,30.09,NNE,27,0.0,2.0,82,0.00,,,0.00,meteohub,2013-10-16 14:54:00,
2013-10-16 10:59:00,55.8,50.0,30.09,NNE,27,0.0,2.0,81,0.00,,,0.00,meteohub,2013-10-16 14:59:00,
2013-10-16 11:04:00,55.8,50.0,30.09,NE,47,1.0,1.0,81,0.00,,,0.00,meteohub,2013-10-16 15:04:00,
2013-10-16 11:09:00,55.9,49.5,30.09,NE,47,2.0,2.0,79,0.00,,,0.00,meteohub,2013-10-16 15:09:00,
2013-10-16 11:14:00,56.1,49.3,30.09,ENE,63,0.0,2.0,78,0.00,,,0.00,meteohub,2013-10-16 15:14:00,
2013-10-16 11:19:00,56.1,49.3,30.09,ENE,58,2.0,3.0,78,0.00,,,0.00,meteohub,2013-10-16 15:19:00,
2013-10-16 11:24:00,56.3,48.9,30.09,ENE,57,0.0,3.0,76,0.00,,,0.00,meteohub,2013-10-16 15:24:00,
2013-10-16 11:29:00,56.5,49.3,30.09,ENE,57,0.0,3.0,77,0.00,,,0.00,meteohub,2013-10-16 15:29:00,
2013-10-16 11:34:00,56.7,49.5,30.09,ENE,57,0.0,3.0,77,0.00,,,0.00,meteohub,2013-10-16 15:34:00,
2013-10-16 11:39:00,56.8,49.3,30.09,ENE,57,0.0,3.0,76,0.00,,,0.00,meteohub,2013-10-16 15:39:00,
2013-10-16 11:44:00,57.0,49.1,30.09,ENE,57,0.0,2.0,75,0.00,,,0.00,meteohub,2013-10-16 15:44:00,
2013-10-16 11:49:00,57.0,49.5,30.08,ENE,57,0.0,2.0,76,0.00,,,0.00,meteohub,2013-10-16 15:49:00,
2013-10-16 11:54:00,57.2,49.3,30.08,ENE,57,0.0,1.0,75,0.00,,,0.00,meteohub,2013-10-16 15:54:00,
2013-10-16 11:59:00,57.4,49.1,30.08,ENE,57,0.0,1.0,74,0.00,,,0.00,meteohub,2013-10-16 15:59:00,
2013-10-16 12:04:00,57.4,49.5,30.07,ENE,57,0.0,2.0,75,0.00,,,0.00,meteohub,2013-10-16 16:04:00,
2013-10-16 12:09:00,57.4,49.8,30.07,ENE,57,0.0,2.0,76,0.00,,,0.00,meteohub,2013-10-16 16:09:00,
2013-10-16 12:14:00,57.4,49.8,30.07,ENE,57,0.0,2.0,76,0.00,,,0.00,meteohub,2013-10-16 16:14:00,
2013-10-16 12:19:00,57.6,49.3,30.07,ENE,57,0.0,1.0,74,0.00,,,0.00,meteohub,2013-10-16 16:19:00,
2013-10-16 12:24:00,57.4,48.7,30.06,ENE,57,0.0,1.0,73,0.00,,,0.00,meteohub,2013-10-16 16:24:00,
2013-10-16 12:29:00,57.4,49.5,30.06,ENE,57,0.0,2.0,75,0.00,,,0.00,meteohub,2013-10-16 16:29:00,
2013-10-16 12:34:00,57.4,49.1,30.06,ENE,57,0.0,2.0,74,0.00,,,0.00,meteohub,2013-10-16 16:34:00,
2013-10-16 12:39:00,57.6,49.6,30.05,ENE,57,0.0,2.0,75,0.00,,,0.00,meteohub,2013-10-16 16:39:00,
2013-10-16 12:44:00,57.7,50.2,30.05,ENE,57,0.0,0.0,76,0.00,,,0.00,meteohub,2013-10-16 16:44:00,
2013-10-16 12:49:00,57.7,49.1,30.05,ENE,57,0.0,0.0,73,0.00,,,0.00,meteohub,2013-10-16 16:49:00,
2013-10-16 12:54:00,57.7,49.1,30.05,ENE,57,0.0,3.0,73,0.00,,,0.00,meteohub,2013-10-16 16:54:00,
2013-10-16 12:59:00,57.7,49.5,30.05,ENE,57,0.0,3.0,74,0.00,,,0.00,meteohub,2013-10-16 16:59:00,
2013-10-16 13:04:00,57.7,49.8,30.05,ENE,57,0.0,3.0,75,0.00,,,0.00,meteohub,2013-10-16 17:04:00,
2013-10-16 13:09:00,57.9,49.6,30.05,ENE,57,0.0,2.0,74,0.00,,,0.00,meteohub,2013-10-16 17:09:00,
2013-10-16 13:14:00,57.9,49.6,30.04,ENE,57,1.0,2.0,74,0.00,,,0.00,meteohub,2013-10-16 17:14:00,
2013-10-16 13:19:00,58.1,50.2,30.04,ENE,57,0.0,2.0,75,0.00,,,0.00,meteohub,2013-10-16 17:19:00,
2013-10-16 13:24:00,58.3,49.6,30.04,ENE,57,0.0,2.0,73,0.00,,,0.00,meteohub,2013-10-16 17:24:00,
2013-10-16 13:30:00,58.3,50.0,30.04,ENE,57,0.0,2.0,74,0.00,,,0.00,meteohub,2013-10-16 17:30:00,
2013-10-16 13:35:00,58.5,50.5,30.04,ENE,57,0.0,2.0,75,0.00,,,0.00,meteohub,2013-10-16 17:35:00,
2013-10-16 13:40:00,58.6,50.4,30.04,ENE,57,0.0,2.0,74,0.00,,,0.00,meteohub,2013-10-16 17:40:00,
2013-10-16 13:45:00,58.6,50.4,30.04,ENE,57,0.0,2.0,74,0.00,,,0.00,meteohub,2013-10-16 17:45:00,
2013-10-16 13:50:00,58.8,50.5,30.03,ENE,57,0.0,2.0,74,0.00,,,0.00,meteohub,2013-10-16 17:50:00,
2013-10-16 13:55:00,58.8,50.5,30.03,ENE,57,0.0,2.0,74,0.00,,,0.00,meteohub,2013-10-16 17:55:00,
2013-10-16 14:00:00,58.8,49.8,30.03,ENE,57,0.0,0.0,72,0.00,,,0.00,meteohub,2013-10-16 18:00:00,
2013-10-16 14:05:00,58.8,50.5,30.03,ENE,57,0.0,0.0,74,0.00,,,0.00,meteohub,2013-10-16 18:05:00,
2013-10-16 14:10:00,59.2,50.5,30.02,ENE,57,0.0,0.0,73,0.00,,,0.00,meteohub,2013-10-16 18:10:00,
2013-10-16 14:15:00,59.2,51.3,30.02,ENE,57,0.0,0.0,75,0.00,,,0.00,meteohub,2013-10-16 18:15:00,
2013-10-16 14:20:00,59.4,51.4,30.02,ENE,57,0.0,0.0,75,0.00,,,0.00,meteohub,2013-10-16 18:20:00,
2013-10-16 14:25:00,59.5,51.3,30.01,ENE,57,0.0,0.0,74,0.00,,,0.00,meteohub,2013-10-16 18:25:00,
2013-10-16 14:27:00,59.5,50.9,30.02,ENE,57,0.0,0.0,73,0.00,,,0.00,meteohub,2013-10-16 18:27:00,
2013-10-16 14:32:00,59.5,50.5,30.01,ENE,57,0.0,0.0,72,0.00,,,0.00,meteohub,2013-10-16 18:32:00,
2013-10-16 14:37:00,59.5,50.5,30.01,ENE,57,0.0,0.0,72,0.00,,,0.00,meteohub,2013-10-16 18:37:00,
2013-10-16 14:42:00,59.5,51.3,30.01,ENE,57,0.0,0.0,74,0.00,,,0.00,meteohub,2013-10-16 18:42:00,
2013-10-16 14:47:00,59.7,50.7,30.02,ENE,57,0.0,1.0,72,0.00,,,0.00,meteohub,2013-10-16 18:47:00,
2013-10-16 14:52:00,59.7,51.1,30.02,ENE,57,0.0,1.0,73,0.00,,,0.00,meteohub,2013-10-16 18:52:00,
2013-10-16 14:57:00,59.7,51.1,30.02,ENE,57,0.0,1.0,73,0.00,,,0.00,meteohub,2013-10-16 18:57:00,
2013-10-16 15:02:00,59.7,51.1,30.01,ENE,57,0.0,0.0,73,0.00,,,0.00,meteohub,2013-10-16 19:02:00,
2013-10-16 15:07:00,59.5,51.6,30.01,ENE,57,0.0,0.0,75,0.00,,,0.00,meteohub,2013-10-16 19:07:00,
2013-10-16 15:12:00,59.7,52.2,30.01,ENE,57,0.0,0.0,76,0.00,,,0.00,meteohub,2013-10-16 19:12:00,
2013-10-16 15:17:00,59.7,52.2,30.01,ENE,57,0.0,0.0,76,0.00,,,0.00,meteohub,2013-10-16 19:17:00,
2013-10-16 15:22:00,59.9,52.3,30.01,ENE,57,0.0,0.0,76,0.00,,,0.00,meteohub,2013-10-16 19:22:00,
2013-10-16 15:27:00,59.9,52.3,30.00,ENE,57,0.0,0.0,76,0.00,,,0.00,meteohub,2013-10-16 19:27:00,
2013-10-16 15:32:00,60.1,52.5,30.00,ENE,57,0.0,0.0,76,0.00,,,0.00,meteohub,2013-10-16 19:32:00,
2013-10-16 15:37:00,60.1,52.5,30.01,ENE,57,0.0,0.0,76,0.00,,,0.00,meteohub,2013-10-16 19:37:00,
2013-10-16 15:42:00,60.1,53.6,30.00,ENE,57,0.0,0.0,79,0.00,,,0.00,meteohub,2013-10-16 19:42:00,
2013-10-16 15:47:00,60.3,53.4,30.00,ENE,57,0.0,0.0,78,0.00,,,0.00,meteohub,2013-10-16 19:47:00,
2013-10-16 15:52:00,60.3,52.7,30.00,ENE,57,0.0,0.0,76,0.00,,,0.00,meteohub,2013-10-16 19:52:00,
2013-10-16 15:57:00,60.3,52.7,30.00,ENE,57,0.0,0.0,76,0.00,,,0.00,meteohub,2013-10-16 19:57:00,
2013-10-16 16:02:00,60.3,53.1,30.00,ENE,57,0.0,0.0,77,0.00,,,0.00,meteohub,2013-10-16 20:02:00,
2013-10-16 16:07:00,60.1,52.5,30.00,ENE,57,0.0,0.0,76,0.00,,,0.00,meteohub,2013-10-16 20:07:00,
2013-10-16 16:12:00,60.1,52.5,30.01,ENE,57,0.0,0.0,76,0.00,,,0.00,meteohub,2013-10-16 20:12:00,
2013-10-16 16:17:00,60.1,53.2,30.01,ENE,57,0.0,0.0,78,0.00,,,0.00,meteohub,2013-10-16 20:17:00,
2013-10-16 16:22:00,59.9,53.4,30.00,ENE,57,0.0,0.0,79,0.00,,,0.00,meteohub,2013-10-16 20:22:00,
2013-10-16 16:27:00,59.9,53.1,30.00,ENE,57,0.0,0.0,78,0.00,,,0.00,meteohub,2013-10-16 20:27:00,
2013-10-16 16:32:00,59.9,53.1,30.00,ENE,57,0.0,0.0,78,0.00,,,0.00,meteohub,2013-10-16 20:32:00,
2013-10-16 16:37:00,59.7,53.2,30.00,ENE,57,0.0,0.0,79,0.00,,,0.00,meteohub,2013-10-16 20:37:00,
2013-10-16 16:42:00,59.7,52.9,30.00,ENE,57,0.0,0.0,78,0.00,,,0.00,meteohub,2013-10-16 20:42:00,
2013-10-16 16:47:00,59.7,53.2,30.00,ENE,57,0.0,0.0,79,0.00,,,0.00,meteohub,2013-10-16 20:47:00,
2013-10-16 16:52:00,59.7,52.9,30.00,ENE,57,0.0,0.0,78,0.00,,,0.00,meteohub,2013-10-16 20:52:00,
2013-10-16 16:57:00,59.7,53.2,30.00,ENE,57,0.0,0.0,79,0.00,,,0.00,meteohub,2013-10-16 20:57:00,
2013-10-16 17:02:00,59.5,53.4,30.00,ENE,57,0.0,0.0,80,0.00,,,0.00,meteohub,2013-10-16 21:02:00,
2013-10-16 17:07:00,59.5,53.4,30.00,ENE,57,0.0,0.0,80,0.00,,,0.00,meteohub,2013-10-16 21:07:00,
2013-10-16 17:12:00,59.4,53.6,30.00,ENE,57,0.0,0.0,81,0.00,,,0.00,meteohub,2013-10-16 21:12:00,
2013-10-16 17:17:00,59.4,53.8,29.99,ENE,57,0.0,0.0,82,0.00,,,0.00,meteohub,2013-10-16 21:17:00,
2013-10-16 17:22:00,59.4,53.6,29.99,ENE,57,0.0,0.0,81,0.00,,,0.00,meteohub,2013-10-16 21:22:00,
2013-10-16 17:27:00,59.2,53.4,29.99,ENE,57,0.0,0.0,81,0.00,,,0.00,meteohub,2013-10-16 21:27:00,
2013-10-16 17:32:00,59.2,53.4,29.99,ENE,57,0.0,0.0,81,0.00,,,0.00,meteohub,2013-10-16 21:32:00,
2013-10-16 17:37:00,58.8,53.6,30.00,ENE,57,0.0,0.0,83,0.00,,,0.00,meteohub,2013-10-16 21:37:00,
2013-10-16 17:42:00,58.6,53.2,30.00,ENE,57,0.0,0.0,82,0.00,,,0.00,meteohub,2013-10-16 21:42:00,
2013-10-16 17:47:00,58.6,53.2,30.00,ENE,57,0.0,0.0,82,0.00,,,0.00,meteohub,2013-10-16 21:47:00,
2013-10-16 17:52:00,58.5,53.2,30.00,ENE,57,0.0,0.0,83,0.00,,,0.00,meteohub,2013-10-16 21:52:00,
2013-10-16 17:57:00,58.3,53.4,30.00,ENE,57,0.0,0.0,84,0.00,,,0.00,meteohub,2013-10-16 21:57:00,
2013-10-16 18:02:00,58.3,53.4,30.00,ENE,57,0.0,0.0,84,0.00,,,0.00,meteohub,2013-10-16 22:02:00,
2013-10-16 18:07:00,57.9,53.1,29.99,ENE,57,0.0,0.0,84,0.00,,,0.00,meteohub,2013-10-16 22:07:00,
2013-10-16 18:12:00,57.7,52.9,29.99,ENE,57,0.0,0.0,84,0.00,,,0.00,meteohub,2013-10-16 22:12:00,
2013-10-16 18:17:00,57.7,53.2,29.99,ENE,57,0.0,0.0,85,0.00,,,0.00,meteohub,2013-10-16 22:17:00,
2013-10-16 18:22:00,57.6,52.7,29.99,ENE,57,0.0,0.0,84,0.00,,,0.00,meteohub,2013-10-16 22:22:00,
2013-10-16 18:27:00,57.4,52.9,29.99,ENE,57,0.0,0.0,85,0.00,,,0.00,meteohub,2013-10-16 22:27:00,
2013-10-16 18:32:00,57.4,52.9,29.99,ENE,57,0.0,0.0,85,0.00,,,0.00,meteohub,2013-10-16 22:32:00,
2013-10-16 18:37:00,57.0,52.9,29.99,ENE,57,0.0,0.0,86,0.00,,,0.00,meteohub,2013-10-16 22:37:00,
2013-10-16 18:42:00,57.0,53.2,29.99,ENE,57,0.0,0.0,87,0.00,,,0.00,meteohub,2013-10-16 22:42:00,
2013-10-16 18:47:00,56.8,53.1,29.99,ENE,57,0.0,1.0,87,0.00,,,0.00,meteohub,2013-10-16 22:47:00,
2013-10-16 18:52:00,56.7,52.9,29.98,ENE,57,0.0,1.0,87,0.00,,,0.00,meteohub,2013-10-16 22:52:00,
2013-10-16 18:57:00,56.7,53.1,29.99,ENE,57,0.0,1.0,88,0.00,,,0.00,meteohub,2013-10-16 22:57:00,
2013-10-16 19:02:00,56.5,52.9,29.99,ENE,57,0.0,0.0,88,0.00,,,0.00,meteohub,2013-10-16 23:02:00,
2013-10-16 19:07:00,56.5,52.9,29.98,ENE,57,0.0,0.0,88,0.00,,,0.00,meteohub,2013-10-16 23:07:00,
2013-10-16 19:12:00,56.3,52.9,29.99,ENE,57,0.0,1.0,88,0.00,,,0.00,meteohub,2013-10-16 23:12:00,
2013-10-16 19:17:00,56.1,52.7,29.98,ENE,57,0.0,1.0,88,0.00,,,0.00,meteohub,2013-10-16 23:17:00,
2013-10-16 19:22:00,56.1,52.7,29.98,ENE,57,0.0,1.0,88,0.00,,,0.00,meteohub,2013-10-16 23:22:00,
2013-10-16 19:27:00,55.9,52.7,29.99,ENE,57,0.0,1.0,89,0.00,,,0.00,meteohub,2013-10-16 23:27:00,
2013-10-16 19:32:00,55.9,52.7,29.99,ENE,57,0.0,0.0,89,0.00,,,0.00,meteohub,2013-10-16 23:32:00,
2013-10-16 19:37:00,55.9,53.1,29.99,ENE,57,0.0,0.0,90,0.00,,,0.00,meteohub,2013-10-16 23:37:00,
2013-10-16 19:42:00,55.8,52.5,29.98,ENE,57,0.0,0.0,89,0.00,,,0.00,meteohub,2013-10-16 23:42:00,
2013-10-16 19:47:00,55.8,52.9,29.98,ENE,57,0.0,0.0,90,0.00,,,0.00,meteohub,2013-10-16 23:47:00,
2013-10-16 19:52:00,55.6,52.7,29.98,ENE,57,0.0,0.0,90,0.00,,,0.00,meteohub,2013-10-16 23:52:00,
2013-10-16 19:57:00,55.6,52.7,29.98,ENE,57,0.0,0.0,90,0.00,,,0.00,meteohub,2013-10-16 23:57:00,
2013-10-16 20:02:00,55.4,52.5,29.98,ENE,57,0.0,2.0,90,0.00,,,0.00,meteohub,2013-10-17 00:02:00,
2013-10-16 20:07:00,55.2,52.3,29.97,ENE,57,0.0,2.0,90,0.00,,,0.00,meteohub,2013-10-17 00:07:00,
2013-10-16 20:12:00,55.2,52.7,29.96,ENE,57,0.0,2.0,91,0.00,,,0.00,meteohub,2013-10-17 00:12:00,
2013-10-16 20:17:00,55.0,52.5,29.96,ENE,57,0.0,1.0,91,0.00,,,0.00,meteohub,2013-10-17 00:17:00,
2013-10-16 20:22:00,54.9,52.3,29.97,SSW,207,0.0,2.0,91,0.00,,,0.00,meteohub,2013-10-17 00:22:00,
2013-10-16 20:27:00,54.9,52.3,29.97,SSW,207,0.0,2.0,91,0.00,,,0.00,meteohub,2013-10-17 00:27:00,
2013-10-16 20:32:00,54.9,52.3,29.97,SSW,207,0.0,2.0,91,0.00,,,0.00,meteohub,2013-10-17 00:32:00,
2013-10-16 20:37:00,54.9,52.3,29.97,SSW,207,0.0,2.0,91,0.00,,,0.00,meteohub,2013-10-17 00:37:00,
2013-10-16 20:42:00,54.7,52.2,29.97,SSW,207,0.0,0.0,91,0.00,,,0.00,meteohub,2013-10-17 00:42:00,
2013-10-16 20:47:00,54.7,52.2,29.97,SSW,207,0.0,0.0,91,0.00,,,0.00,meteohub,2013-10-17 00:47:00,
2013-10-16 20:52:00,54.5,52.0,29.97,SSW,207,0.0,0.0,91,0.00,,,0.00,meteohub,2013-10-17 00:52:00,
2013-10-16 20:57:00,54.3,51.8,29.97,SSW,207,0.0,2.0,91,0.00,,,0.00,meteohub,2013-10-17 00:57:00,
2013-10-16 21:02:00,54.3,52.0,29.97,SSW,207,0.0,2.0,92,0.00,,,0.00,meteohub,2013-10-17 01:02:00,
2013-10-16 21:07:00,54.3,52.0,29.97,SSW,207,0.0,2.0,92,0.00,,,0.00,meteohub,2013-10-17 01:07:00,
2013-10-16 21:12:00,54.1,51.8,29.97,SSW,207,0.0,0.0,92,0.00,,,0.00,meteohub,2013-10-17 01:12:00,
2013-10-16 21:17:00,54.1,51.8,29.97,SSW,207,0.0,0.0,92,0.00,,,0.00,meteohub,2013-10-17 01:17:00,
2013-10-16 21:22:00,54.1,51.8,29.97,SSW,207,0.0,0.0,92,0.00,,,0.00,meteohub,2013-10-17 01:22:00,
2013-10-16 21:27:00,54.0,51.6,29.97,SSW,207,0.0,0.0,92,0.00,,,0.00,meteohub,2013-10-17 01:27:00,
2013-10-16 21:32:00,54.0,51.6,29.97,SSW,207,0.0,0.0,92,0.00,,,0.00,meteohub,2013-10-17 01:32:00,
2013-10-16 21:37:00,53.8,51.4,29.97,SSW,207,0.0,0.0,92,0.00,,,0.00,meteohub,2013-10-17 01:37:00,
2013-10-16 21:42:00,53.8,51.4,29.98,SSW,207,0.0,0.0,92,0.00,,,0.00,meteohub,2013-10-17 01:42:00,
2013-10-16 21:47:00,53.6,51.3,29.98,SSW,207,0.0,1.0,92,0.00,,,0.00,meteohub,2013-10-17 01:47:00,
2013-10-16 21:52:00,53.8,51.8,29.97,SSW,207,0.0,1.0,93,0.00,,,0.00,meteohub,2013-10-17 01:52:00,
2013-10-16 21:57:00,53.8,51.8,29.97,SSW,207,0.0,1.0,93,0.00,,,0.00,meteohub,2013-10-17 01:57:00,
2013-10-16 22:02:00,53.8,51.8,29.97,SSW,207,0.0,0.0,93,0.00,,,0.00,meteohub,2013-10-17 02:02:00,
2013-10-16 22:07:00,53.8,51.8,29.97,SSW,207,0.0,0.0,93,0.00,,,0.00,meteohub,2013-10-17 02:07:00,
2013-10-16 22:12:00,53.8,51.8,29.97,SSW,207,0.0,0.0,93,0.00,,,0.00,meteohub,2013-10-17 02:12:00,
2013-10-16 22:17:00,53.8,51.8,29.97,SSW,207,0.0,0.0,93,0.00,,,0.00,meteohub,2013-10-17 02:17:00,
2013-10-16 22:22:00,53.8,51.8,29.97,SSW,207,0.0,0.0,93,0.00,,,0.00,meteohub,2013-10-17 02:22:00,
2013-10-16 22:27:00,53.8,51.8,29.97,SSW,207,0.0,0.0,93,0.00,,,0.00,meteohub,2013-10-17 02:27:00,
2013-10-16 22:32:00,53.8,51.8,29.97,SSW,207,0.0,0.0,93,0.00,,,0.00,meteohub,2013-10-17 02:32:00,
2013-10-16 22:37:00,54.0,52.0,29.96,SSW,207,0.0,0.0,93,0.00,,,0.00,meteohub,2013-10-17 02:37:00,
2013-10-16 22:42:00,54.0,52.0,29.96,SSW,207,0.0,0.0,93,0.00,,,0.00,meteohub,2013-10-17 02:42:00,
2013-10-16 22:47:00,54.0,52.0,29.96,SSW,207,0.0,0.0,93,0.00,,,0.00,meteohub,2013-10-17 02:47:00,
2013-10-16 22:52:00,53.8,51.8,29.96,SSW,207,0.0,0.0,93,0.00,,,0.00,meteohub,2013-10-17 02:52:00,
2013-10-16 22:57:00,53.8,51.8,29.95,SSW,207,0.0,0.0,93,0.00,,,0.00,meteohub,2013-10-17 02:57:00,
2013-10-16 23:02:00,53.6,51.3,29.95,SSW,207,0.0,0.0,92,0.00,,,0.00,meteohub,2013-10-17 03:02:00,
2013-10-16 23:07:00,53.4,51.1,29.95,SSW,207,0.0,0.0,92,0.00,,,0.00,meteohub,2013-10-17 03:07:00,
2013-10-16 23:12:00,53.4,51.4,29.96,SSW,207,0.0,0.0,93,0.00,,,0.00,meteohub,2013-10-17 03:12:00,
2013-10-16 23:17:00,53.4,51.4,29.96,SSW,207,0.0,0.0,93,0.00,,,0.00,meteohub,2013-10-17 03:17:00,
2013-10-16 23:22:00,53.4,51.4,29.96,SSW,207,0.0,0.0,93,0.00,,,0.00,meteohub,2013-10-17 03:22:00,
2013-10-16 23:27:00,53.4,51.4,29.95,SSW,207,0.0,0.0,93,0.00,,,0.00,meteohub,2013-10-17 03:27:00,
2013-10-16 23:32:00,53.4,51.4,29.95,SSW,207,0.0,0.0,93,0.00,,,0.00,meteohub,2013-10-17 03:32:00,
2013-10-16 23:37:00,53.4,51.4,29.94,SSW,207,0.0,0.0,93,0.00,,,0.00,meteohub,2013-10-17 03:37:00,
2013-10-16 23:42:00,53.4,51.4,29.94,SSW,207,0.0,0.0,93,0.00,,,0.00,meteohub,2013-10-17 03:42:00,
2013-10-16 23:47:00,53.4,51.4,29.94,SSW,207,0.0,0.0,93,0.00,,,0.00,meteohub,2013-10-17 03:47:00,
2013-10-16 23:52:00,53.6,52.0,29.94,SSW,207,0.0,0.0,94,0.00,,,0.00,meteohub,2013-10-17 03:52:00,